• pl
  • eng

Awiacja
TAF FC 09:30 18.11.2018
  • WIND
  • SIGNIFICANT EURO
  • SIGNIFICANT
  • SIGMET
  • AIRMET
  • TAF FC
  • TAF FT
  • METAR GG30
  • METAR GG00


TAF EPLB 180530Z 1806/1815 30004KT CAVOK
BECMG 1810/1812 3000 -SN BR BKN005 BKN010
TEMPO 1810/1815 1000 SN BKN002=

TAF EPLB 180830Z 1809/1818 31004KT CAVOK
BECMG 1811/1813 3000 -SN BR BKN005 BKN010
TEMPO 1811/1818 1000 SN BKN002=

TAF EPRA 180700Z 1806/1815 27005KT 5000 BR NSC
BECMG 1811/1813 4000 -RASN BR BKN005 BKN013
PROB40 1812/1814 2000 SN BKN003=

TAF EPRA 180830Z 1809/1818 29006KT 6000 NSC
BECMG 1812/1814 4000 -RASN BR BKN005 BKN013
PROB40 1812/1814 2000 SN BKN003=

TAF EPZG 180530Z 1806/1815 VRB03KT 3000 BR NSC
TEMPO 1806/1809 1500 BR
PROB30 1806/1808 0600 FG BKN003
BECMG 1813/1815 01010KT 3000 -RA BKN013=

TAF EPZG 180830Z 1809/1818 01006KT 4000 BR BKN022
TEMPO 1809/1811 2000 BR
TEMPO 1811/1818 1400 -RA BKN013=
Awiacja.imgw.pl jest pogodowym serwisem informacyjnym
Instytutu Meteorologii i Gospodarki Wodnej Państwowego Instytutu Badawczego.
Copyright IMGW PIB 2009-2011© Wszelkie prawa zastrzeżone.